createdAt,value
2023-01-22T00:04:31.201Z,101150.28
2023-01-22T00:09:32.335Z,101143.25
2023-01-22T00:14:33.271Z,101148.47
2023-01-22T00:19:35.306Z,101153.41
2023-01-22T00:24:35.987Z,101153.38
2023-01-22T00:29:36.670Z,101141.63
2023-01-22T00:34:38.968Z,101147.41
2023-01-22T00:39:39.678Z,101150.94
2023-01-22T00:44:40.353Z,101163.91
2023-01-22T00:49:42.389Z,101168.34
2023-01-22T00:54:43.117Z,101175.34
2023-01-22T00:59:43.782Z,101177.47
2023-01-22T01:04:45.857Z,101182.16
2023-01-22T01:09:46.547Z,101182.84
2023-01-22T01:14:47.602Z,101185.91
2023-01-22T01:19:49.613Z,101185.41
2023-01-22T01:24:50.315Z,101176.84
2023-01-22T01:29:51.027Z,101181.38
2023-01-22T01:34:53.357Z,101179.56
2023-01-22T01:39:54.035Z,101171.94
2023-01-22T01:45:20.609Z,101166.88
2023-01-22T01:50:23.768Z,101156.56
2023-01-22T01:55:29.028Z,101171.06
2023-01-22T02:00:34.339Z,101171.00
2023-01-22T02:05:39.930Z,101180.56
2023-01-22T02:10:41.662Z,101182.31
2023-01-22T02:15:43.770Z,101183.13
2023-01-22T02:20:54.535Z,101200.25
2023-01-22T02:25:55.809Z,101200.25
2023-01-22T02:30:56.702Z,101200.53
2023-01-22T02:35:59.439Z,101206.69
2023-01-22T02:41:01.141Z,101199.09
2023-01-22T02:46:03.653Z,101205.97
2023-01-22T02:51:06.579Z,101208.78
2023-01-22T02:56:08.087Z,101206.22
2023-01-22T03:01:18.820Z,101211.41
2023-01-22T03:06:23.829Z,101204.41
2023-01-22T03:11:25.437Z,101213.09
2023-01-22T03:16:44.903Z,101206.31
2023-01-22T03:21:48.401Z,101220.94
2023-01-22T03:26:49.114Z,101220.06
2023-01-22T03:31:50.853Z,101231.19
2023-01-22T03:36:54.134Z,101219.94
2023-01-22T03:41:55.053Z,101232.09
2023-01-22T03:46:55.848Z,101228.63
2023-01-22T03:51:58.364Z,101229.97
2023-01-22T03:56:59.994Z,101232.66
2023-01-22T04:02:04.935Z,101245.19
2023-01-22T04:07:12.545Z,101243.88
2023-01-22T04:12:13.885Z,101247.59
2023-01-22T04:17:16.622Z,101245.91
2023-01-22T04:22:27.427Z,101254.09
2023-01-22T04:27:30.152Z,101254.28
2023-01-22T04:32:31.900Z,101253.47
2023-01-22T04:37:51.179Z,101261.41
2023-01-22T04:42:52.158Z,101252.78
2023-01-22T04:47:52.841Z,101254.38
2023-01-22T04:52:58.410Z,101254.50
2023-01-22T04:58:00.395Z,101256.22
2023-01-22T05:03:03.438Z,101264.06
2023-01-22T05:08:06.437Z,101276.91
2023-01-22T05:13:09.694Z,101272.75
2023-01-22T05:18:12.548Z,101274.34
2023-01-22T05:23:22.213Z,101280.25
2023-01-22T05:28:23.354Z,101275.94
2023-01-22T05:33:41.086Z,101282.81
2023-01-22T05:38:46.542Z,101286.53
2023-01-22T05:43:48.627Z,101283.97
2023-01-22T05:48:54.210Z,101294.69
2023-01-22T05:53:59.794Z,101295.84
2023-01-22T05:59:03.300Z,101292.13
2023-01-22T06:04:04.075Z,101294.06
2023-01-22T06:09:06.243Z,101299.09
2023-01-22T06:14:10.781Z,101307.06
2023-01-22T06:19:12.580Z,101311.97
2023-01-22T06:24:26.707Z,101313.94
2023-01-22T06:29:27.526Z,101324.03
2023-01-22T06:34:29.471Z,101333.50
2023-01-22T06:39:33.507Z,101356.47
2023-01-22T06:44:40.893Z,101350.38
2023-01-22T06:49:41.903Z,101357.13
2023-01-22T06:54:43.945Z,101363.28
2023-01-22T06:59:44.708Z,101364.94
2023-01-22T07:04:45.625Z,101373.47
2023-01-22T07:09:47.682Z,101375.06
2023-01-22T07:14:48.348Z,101386.97
2023-01-22T07:19:49.043Z,101381.09
2023-01-22T07:24:51.111Z,101386.34
2023-01-22T07:29:51.779Z,101391.53
2023-01-22T07:34:52.543Z,101389.94
2023-01-22T07:39:54.530Z,101396.16
2023-01-22T07:44:55.204Z,101401.16
2023-01-22T07:49:55.865Z,101413.09
2023-01-22T07:54:57.974Z,101419.72
2023-01-22T07:59:58.638Z,101429.00
2023-01-22T08:04:59.313Z,101430.41
2023-01-22T08:10:01.426Z,101430.25
2023-01-22T08:15:02.119Z,101435.38
2023-01-22T08:20:02.869Z,101442.44
2023-01-22T08:25:05.233Z,101446.97
2023-01-22T08:30:07.825Z,101455.09
2023-01-22T08:35:09.615Z,101460.09
2023-01-22T08:40:13.842Z,101471.75
2023-01-22T08:45:14.516Z,101477.78
2023-01-22T08:50:16.167Z,101463.34
2023-01-22T08:55:18.535Z,101461.59
2023-01-22T09:00:19.913Z,101481.28
2023-01-22T09:05:20.682Z,101478.63
2023-01-22T09:10:22.933Z,101475.06
2023-01-22T09:15:23.801Z,101494.31
2023-01-22T09:20:24.463Z,101489.09
2023-01-22T09:25:26.717Z,101485.13
2023-01-22T09:30:28.164Z,101487.81
2023-01-22T09:35:29.545Z,101483.72
2023-01-22T09:40:36.937Z,101490.09
2023-01-22T09:45:40.098Z,101494.00
2023-01-22T09:50:42.433Z,101504.91
2023-01-22T09:55:46.941Z,101509.47
2023-01-22T10:00:51.227Z,101500.66
2023-01-22T10:05:55.956Z,101507.59
2023-01-22T10:11:01.031Z,101509.38
2023-01-22T10:16:01.989Z,101509.94
2023-01-22T10:21:05.960Z,101507.75
2023-01-22T10:26:15.451Z,101507.28
2023-01-22T10:31:35.073Z,101518.38
2023-01-22T10:36:35.864Z,101519.53
2023-01-22T10:41:37.923Z,101527.91
2023-01-22T10:46:38.616Z,101523.31
2023-01-22T10:51:43.458Z,101525.59
2023-01-22T10:56:45.911Z,101527.59
2023-01-22T11:01:49.206Z,101526.22
2023-01-22T11:06:54.105Z,101514.31
2023-01-22T11:12:01.459Z,101515.88
2023-01-22T11:17:10.561Z,101513.69
2023-01-22T11:22:23.345Z,101522.16
2023-01-22T11:27:43.892Z,101536.53
2023-01-22T11:32:59.179Z,101530.94
2023-01-22T11:38:18.926Z,101531.13
2023-01-22T11:43:33.557Z,101524.47
2023-01-22T11:48:45.456Z,101520.97
2023-01-22T11:53:58.848Z,101517.53
2023-01-22T11:59:05.791Z,101522.22
2023-01-22T12:04:36.402Z,101507.41
2023-01-22T12:09:45.171Z,101513.53
2023-01-22T12:15:00.674Z,101512.00
2023-01-22T12:20:32.491Z,101508.16
2023-01-22T12:25:39.653Z,101506.44
2023-01-22T12:30:51.673Z,101503.75
2023-01-22T12:35:55.881Z,101518.44
2023-01-22T12:41:07.043Z,101510.47
2023-01-22T12:46:18.192Z,101505.56
2023-01-22T12:51:36.793Z,101516.16
2023-01-22T12:56:37.561Z,101516.38
2023-01-22T13:01:39.630Z,101506.38
2023-01-22T13:06:43.582Z,101501.88
2023-01-22T13:11:44.330Z,101517.84
2023-01-22T13:16:53.992Z,101535.59
2023-01-22T13:21:58.884Z,101533.03
2023-01-22T13:27:01.603Z,101543.59
2023-01-22T13:32:05.642Z,101540.78
2023-01-22T13:37:08.049Z,101541.03
2023-01-22T13:42:12.494Z,101542.66
2023-01-22T13:47:27.542Z,101544.00
2023-01-22T13:52:29.078Z,101547.38
2023-01-22T13:57:29.877Z,101555.44
2023-01-22T14:02:34.641Z,101558.81
2023-01-22T14:07:37.982Z,101558.72
2023-01-22T14:12:38.822Z,101561.63
2023-01-22T14:17:42.082Z,101554.50
2023-01-22T14:22:42.801Z,101566.16
2023-01-22T14:27:46.020Z,101564.28
2023-01-22T14:32:48.093Z,101561.09
2023-01-22T14:37:49.371Z,101553.97
2023-01-22T14:42:50.437Z,101551.81
2023-01-22T14:47:53.736Z,101549.34
2023-01-22T14:52:54.615Z,101552.41
2023-01-22T14:57:57.650Z,101563.78
2023-01-22T15:03:00.323Z,101563.38
2023-01-22T15:08:01.546Z,101566.09
2023-01-22T15:13:02.249Z,101576.72
2023-01-22T15:18:04.443Z,101577.69
2023-01-22T15:23:05.200Z,101575.19
2023-01-22T15:28:06.280Z,101580.22
2023-01-22T15:33:08.375Z,101579.34
2023-01-22T15:38:09.236Z,101570.06
2023-01-22T15:43:09.949Z,101572.06
2023-01-22T15:48:13.985Z,101580.63
2023-01-22T15:53:14.700Z,101594.38
2023-01-22T15:58:15.408Z,101603.31
2023-01-22T16:03:17.408Z,101601.66
2023-01-22T16:08:18.167Z,101613.19
2023-01-22T16:13:18.867Z,101619.63
2023-01-22T16:18:20.858Z,101626.72
2023-01-22T16:23:21.579Z,101635.00
2023-01-22T16:28:22.307Z,101632.56
2023-01-22T16:33:28.660Z,101619.84
2023-01-22T16:38:30.120Z,101634.03
2023-01-22T16:43:30.787Z,101637.00
2023-01-22T16:48:32.763Z,101633.63
2023-01-22T16:53:34.509Z,101640.94
2023-01-22T16:58:36.902Z,101648.03
2023-01-22T17:03:38.911Z,101645.78
2023-01-22T17:08:39.611Z,101645.34
2023-01-22T17:13:40.337Z,101651.78
2023-01-22T17:18:42.561Z,101655.69
2023-01-22T17:23:43.327Z,101657.94
2023-01-22T17:28:44.168Z,101652.03
2023-01-22T17:33:46.672Z,101666.50
2023-01-22T17:38:47.566Z,101667.44
2023-01-22T17:43:50.736Z,101674.16
2023-01-22T17:48:53.789Z,101688.19
2023-01-22T17:53:56.357Z,101696.44
2023-01-22T17:58:59.096Z,101698.06
2023-01-22T18:04:02.938Z,101702.50
2023-01-22T18:09:05.133Z,101704.88
2023-01-22T18:14:08.230Z,101705.06
2023-01-22T18:19:10.527Z,101702.81
2023-01-22T18:24:13.227Z,101713.97
2023-01-22T18:29:13.997Z,101707.97
2023-01-22T18:34:16.575Z,101723.47
2023-01-22T18:39:19.089Z,101723.09
2023-01-22T18:44:20.450Z,101733.25
2023-01-22T18:49:22.939Z,101729.38
2023-01-22T18:54:23.657Z,101739.75
2023-01-22T18:59:24.441Z,101749.66
2023-01-22T19:04:28.017Z,101750.28
2023-01-22T19:09:28.914Z,101755.53
2023-01-22T19:14:29.639Z,101764.75
2023-01-22T19:19:32.997Z,101765.25
2023-01-22T19:24:33.739Z,101763.38
2023-01-22T19:29:34.434Z,101769.81
2023-01-22T19:34:36.879Z,101777.75
2023-01-22T19:39:38.081Z,101777.00
2023-01-22T19:44:39.909Z,101783.00
2023-01-22T19:49:42.130Z,101780.25
2023-01-22T19:54:47.360Z,101793.53
2023-01-22T19:59:52.911Z,101792.59
2023-01-22T20:04:55.007Z,101796.16
2023-01-22T20:09:56.053Z,101801.66
2023-01-22T20:14:56.822Z,101806.06
2023-01-22T20:19:58.925Z,101805.75
2023-01-22T20:24:59.719Z,101800.56
2023-01-22T20:30:00.463Z,101818.00
2023-01-22T20:35:02.539Z,101807.84
2023-01-22T20:40:03.342Z,101809.13
2023-01-22T20:45:04.858Z,101823.59
2023-01-22T20:50:08.091Z,101816.16
2023-01-22T20:55:10.452Z,101826.44
2023-01-22T21:00:12.443Z,101834.66
2023-01-22T21:05:14.664Z,101837.75
2023-01-22T21:10:15.420Z,101845.50
2023-01-22T21:15:16.213Z,101844.03
2023-01-22T21:20:18.776Z,101855.72
2023-01-22T21:25:19.739Z,101852.56
2023-01-22T21:30:21.022Z,101858.50
2023-01-22T21:35:23.785Z,101864.09
2023-01-22T21:40:24.521Z,101869.16
2023-01-22T21:45:43.582Z,101878.94
2023-01-22T21:50:45.688Z,101885.72
2023-01-22T21:55:51.309Z,101886.59
2023-01-22T22:00:54.760Z,101888.19
2023-01-22T22:06:01.947Z,101893.53
2023-01-22T22:11:03.608Z,101899.28
2023-01-22T22:16:06.503Z,101900.97
2023-01-22T22:21:09.674Z,101905.28
2023-01-22T22:26:11.589Z,101912.06
2023-01-22T22:31:15.265Z,101914.75
2023-01-22T22:36:19.736Z,101921.03
2023-01-22T22:41:23.617Z,101915.44
2023-01-22T22:46:26.676Z,101920.84
2023-01-22T22:51:30.234Z,101923.28
2023-01-22T22:56:31.883Z,101924.16
2023-01-22T23:01:33.250Z,101933.47
2023-01-22T23:06:37.125Z,101934.41
2023-01-22T23:11:44.344Z,101941.13
2023-01-22T23:16:45.758Z,101946.78
2023-01-22T23:21:50.329Z,101949.91
2023-01-22T23:26:51.388Z,101961.19
2023-01-22T23:31:52.522Z,101959.44
2023-01-22T23:36:54.623Z,101961.31
2023-01-22T23:41:55.327Z,101957.75
2023-01-22T23:46:55.973Z,101962.81
2023-01-22T23:51:58.029Z,101970.94
2023-01-22T23:56:58.773Z,101981.34
